Time;durP1;ratioP1;P1;durP2;ratioP2;P2;SDS_P1;SDS_P2;PMS_P1;PMS_P2;Temp;Humidity;BMP_temperature;BMP_pressure;BME280_temperature;BME280_humidity;BME280_pressure;Samples;Min_cycle;Max_cycle;Signal;HPM_P1;HPM_P2
2021/12/12 00:01:12;;;;;;;14.15;5.63;;;;;;;;;;6298044;28;20417;-85
2021/12/12 00:04:16;;;;;;;12.05;5.78;;;;;;;;;;6316015;28;20748;-85
2021/12/12 00:07:26;;;;;;;14.10;5.53;;;;;;;;;;6291119;28;20501;-87
2021/12/12 00:10:33;;;;;;;15.93;5.38;;;;;;;;;;6256618;28;20043;-86
2021/12/12 00:13:45;;;;;;;19.77;7.82;;;;;;;;;;6279599;28;20036;-85
2021/12/12 00:16:53;;;;;;;21.48;6.03;;;;;;;;;;6286898;28;20083;-82
2021/12/12 00:19:55;;;;;;;18.38;6.90;;;;;;;;;;6273525;28;20036;-85
2021/12/12 00:22:59;;;;;;;23.27;9.07;;;;;;;;;;6275055;28;20139;-85
2021/12/12 00:26:02;;;;;;;17.92;8.05;;;;;;;;;;6269796;28;20060;-82
2021/12/12 00:29:06;;;;;;;20.58;8.10;;;;;;;;;;6295294;28;20040;-84
2021/12/12 00:32:11;;;;;;;20.20;7.18;;;;;;;;;;6274836;28;20119;-83
2021/12/12 00:35:15;;;;;;;17.02;7.13;;;;;;;;;;6297567;28;20042;-84
2021/12/12 00:38:26;;;;;;;22.05;9.18;;;;;;;;;;6307258;28;20185;-83
2021/12/12 00:41:38;;;;;;;24.65;9.27;;;;;;;;;;6298740;28;20543;-84
2021/12/12 00:44:44;;;;;;;27.47;11.17;;;;;;;;;;6269305;28;20040;-86
2021/12/12 00:47:46;;;;;;;26.77;10.38;;;;;;;;;;6273122;28;20044;-84
2021/12/12 00:50:49;;;;;;;37.63;11.60;;;;;;;;;;6257011;28;20045;-82
2021/12/12 00:53:51;;;;;;;32.38;11.63;;;;;;;;;;6297378;28;20527;-84
2021/12/12 00:56:52;;;;;;;27.67;11.45;;;;;;;;;;6298172;28;20077;-84
2021/12/12 00:59:54;;;;;;;23.85;9.73;;;;;;;;;;6280081;28;20577;-84
2021/12/12 01:02:56;;;;;;;25.90;10.65;;;;;;;;;;6314148;28;20497;-85
2021/12/12 01:05:59;;;;;;;28.40;11.10;;;;;;;;;;6297235;28;20046;-84
2021/12/12 01:09:12;;;;;;;24.63;10.82;;;;;;;;;;6293737;28;20122;-84
2021/12/12 01:12:18;;;;;;;26.23;10.15;;;;;;;;;;6313668;28;20039;-84
2021/12/12 01:15:55;;;;;;;25.98;9.75;;;;;;;;;;6289343;28;20059;-83
2021/12/12 01:19:17;;;;;;;23.50;9.48;;;;;;;;;;6267736;28;20044;-84
2021/12/12 01:22:26;;;;;;;23.15;9.63;;;;;;;;;;6280633;28;20208;-84
2021/12/12 01:25:36;;;;;;;25.75;10.15;;;;;;;;;;6272166;28;20123;-84
2021/12/12 01:28:42;;;;;;;26.00;11.35;;;;;;;;;;6295916;28;20040;-83
2021/12/12 01:31:48;;;;;;;27.85;10.35;;;;;;;;;;6287191;28;20039;-83
2021/12/12 01:34:51;;;;;;;25.83;10.55;;;;;;;;;;6290905;28;20045;-82
2021/12/12 01:41:31;;;;;;;26.95;10.73;;;;;;;;;;6286895;28;20515;-82
2021/12/12 01:44:44;;;;;;;28.25;10.10;;;;;;;;;;6282097;28;20454;-83
2021/12/12 01:48:18;;;;;;;24.37;9.50;;;;;;;;;;6307574;28;20040;-82
2021/12/12 01:51:22;;;;;;;26.70;10.93;;;;;;;;;;6279513;28;20181;-82
2021/12/12 01:54:30;;;;;;;28.17;10.65;;;;;;;;;;6287796;28;20056;-82
2021/12/12 01:57:35;;;;;;;25.10;9.02;;;;;;;;;;6287878;28;20041;-84
2021/12/12 02:00:43;;;;;;;21.33;8.85;;;;;;;;;;6310641;28;20058;-85
2021/12/12 02:03:49;;;;;;;19.50;8.10;;;;;;;;;;6277584;28;20048;-84
2021/12/12 02:06:52;;;;;;;22.58;8.80;;;;;;;;;;6278077;28;20455;-83
2021/12/12 02:09:55;;;;;;;19.30;8.27;;;;;;;;;;6283330;28;20047;-85
2021/12/12 02:13:01;;;;;;;25.00;8.93;;;;;;;;;;6276160;28;20131;-82
2021/12/12 02:16:04;;;;;;;23.42;8.50;;;;;;;;;;6287765;28;20044;-83
2021/12/12 02:19:07;;;;;;;24.35;8.75;;;;;;;;;;6272490;28;20501;-82
2021/12/12 02:38:45;;;;;;;20.05;8.25;;;;;;;;;;6292109;28;20050;-84
2021/12/12 02:41:50;;;;;;;24.45;8.70;;;;;;;;;;6287886;28;20051;-84
2021/12/12 02:44:56;;;;;;;23.42;8.75;;;;;;;;;;6303070;28;20040;-84
2021/12/12 02:48:02;;;;;;;22.02;8.07;;;;;;;;;;6312042;28;20051;-82
2021/12/12 02:51:08;;;;;;;23.50;7.85;;;;;;;;;;6310362;28;20055;-84
2021/12/12 02:54:11;;;;;;;19.10;8.25;;;;;;;;;;6295916;28;20051;-85
2021/12/12 02:57:14;;;;;;;23.35;9.13;;;;;;;;;;6316359;28;20044;-86
2021/12/12 03:00:17;;;;;;;;;;;;;;;;;;6308241;28;20085;-84
2021/12/12 03:03:19;;;;;;;15.93;7.47;;;;;;;;;;6319827;28;20007;-83
2021/12/12 03:06:25;;;;;;;23.45;7.72;;;;;;;;;;6322790;28;20036;-84
2021/12/12 03:09:31;;;;;;;20.98;7.65;;;;;;;;;;6303069;28;20109;-85
2021/12/12 03:12:34;;;;;;;19.42;7.07;;;;;;;;;;6305241;28;20421;-82
2021/12/12 03:15:39;;;;;;;20.73;7.70;;;;;;;;;;6321774;28;20077;-83
2021/12/12 03:18:43;;;;;;;20.50;7.40;;;;;;;;;;6297993;28;20043;-82
2021/12/12 03:21:47;;;;;;;20.90;8.00;;;;;;;;;;6295147;28;20040;-83
2021/12/12 03:24:49;;;;;;;19.98;7.78;;;;;;;;;;6298363;28;20051;-83
2021/12/12 03:27:51;;;;;;;20.13;7.85;;;;;;;;;;6285535;28;20042;-81
2021/12/12 03:30:55;;;;;;;21.33;8.30;;;;;;;;;;6302228;28;20050;-83
2021/12/12 03:33:59;;;;;;;16.33;7.57;;;;;;;;;;6320057;28;20123;-83
2021/12/12 03:37:02;;;;;;;18.25;7.22;;;;;;;;;;6316594;28;20110;-83
2021/12/12 03:40:13;;;;;;;23.58;7.07;;;;;;;;;;6280100;28;20044;-84
2021/12/12 03:43:15;;;;;;;15.38;7.30;;;;;;;;;;6277901;28;20048;-85
2021/12/12 03:46:17;;;;;;;17.58;7.18;;;;;;;;;;6304478;28;20064;-81
2021/12/12 03:49:20;;;;;;;20.15;7.68;;;;;;;;;;6278191;28;20119;-81
2021/12/12 03:52:22;;;;;;;21.88;6.80;;;;;;;;;;6289784;28;20684;-82
2021/12/12 03:55:26;;;;;;;19.87;7.47;;;;;;;;;;6296544;28;20045;-85
2021/12/12 03:58:28;;;;;;;19.55;6.40;;;;;;;;;;6300243;28;20043;-82
2021/12/12 04:01:34;;;;;;;16.15;6.00;;;;;;;;;;6285507;28;20066;-83
2021/12/12 04:04:39;;;;;;;13.60;5.93;;;;;;;;;;6302737;28;20056;-81
2021/12/12 04:07:42;;;;;;;16.35;6.13;;;;;;;;;;6318645;28;20063;-82
2021/12/12 04:10:43;;;;;;;21.58;7.07;;;;;;;;;;6310308;28;20045;-83
2021/12/12 04:13:48;;;;;;;20.13;6.82;;;;;;;;;;6284531;28;20797;-84
2021/12/12 04:16:53;;;;;;;18.65;6.35;;;;;;;;;;6306569;28;20109;-82
2021/12/12 04:19:58;;;;;;;11.77;5.47;;;;;;;;;;6318151;28;20047;-83
2021/12/12 04:23:00;;;;;;;17.95;6.90;;;;;;;;;;6319572;28;20143;-83
2021/12/12 04:26:20;;;;;;;20.35;7.05;;;;;;;;;;6293009;28;20036;-83
2021/12/12 04:29:32;;;;;;;13.23;6.05;;;;;;;;;;6300411;28;20044;-83
2021/12/12 04:32:35;;;;;;;13.32;6.75;;;;;;;;;;6301191;28;20052;-85
2021/12/12 04:35:37;;;;;;;12.68;5.95;;;;;;;;;;6301085;28;20131;-83
2021/12/12 04:38:39;;;;;;;16.55;6.68;;;;;;;;;;6301699;28;20119;-85
2021/12/12 04:41:43;;;;;;;15.93;5.80;;;;;;;;;;6308067;28;20154;-84
2021/12/12 04:44:50;;;;;;;14.77;6.30;;;;;;;;;;6311835;28;20032;-84
2021/12/12 04:51:47;;;;;;;16.92;6.63;;;;;;;;;;6316603;28;20036;-85
2021/12/12 04:55:04;;;;;;;14.85;6.63;;;;;;;;;;6279288;28;20701;-83
2021/12/12 04:58:10;;;;;;;15.18;6.78;;;;;;;;;;6295148;28;21056;-84
2021/12/12 05:01:25;;;;;;;16.95;6.55;;;;;;;;;;6317075;28;20055;-83
2021/12/12 05:04:37;;;;;;;14.00;5.85;;;;;;;;;;6314326;28;20036;-81
2021/12/12 05:07:45;;;;;;;15.85;6.07;;;;;;;;;;6295941;28;20090;-85
2021/12/12 05:11:27;;;;;;;14.15;6.13;;;;;;;;;;6310425;28;20390;-84
2021/12/12 05:14:35;;;;;;;11.95;5.13;;;;;;;;;;6265700;28;20041;-86
2021/12/12 05:17:44;;;;;;;14.93;6.07;;;;;;;;;;6282758;28;20051;-85
2021/12/12 05:20:55;;;;;;;16.80;5.88;;;;;;;;;;6259062;28;20044;-83
2021/12/12 05:23:59;;;;;;;18.35;6.25;;;;;;;;;;6289110;28;20801;-81
2021/12/12 05:27:05;;;;;;;17.67;6.03;;;;;;;;;;6317853;28;20607;-81
2021/12/12 05:30:20;;;;;;;17.10;5.22;;;;;;;;;;6312275;28;20044;-83
2021/12/12 05:33:23;;;;;;;17.30;5.95;;;;;;;;;;6291355;28;20036;-82
2021/12/12 05:36:27;;;;;;;18.67;6.70;;;;;;;;;;6277996;28;20073;-82
2021/12/12 05:39:30;;;;;;;15.75;5.70;;;;;;;;;;6308157;28;20044;-84
2021/12/12 05:42:33;;;;;;;11.02;4.72;;;;;;;;;;6300032;28;20580;-87
2021/12/12 05:45:35;;;;;;;8.55;4.63;;;;;;;;;;6288385;28;20130;-85
2021/12/12 05:48:37;;;;;;;11.25;5.00;;;;;;;;;;6298287;28;20133;-81
2021/12/12 05:51:39;;;;;;;9.48;3.95;;;;;;;;;;6292982;28;20090;-83
2021/12/12 05:54:41;;;;;;;9.27;3.90;;;;;;;;;;6293911;28;20425;-81
2021/12/12 05:57:48;;;;;;;9.05;3.50;;;;;;;;;;6314445;28;20036;-87
2021/12/12 06:01:03;;;;;;;8.32;3.70;;;;;;;;;;6297252;28;20059;-86
2021/12/12 06:04:06;;;;;;;9.68;3.08;;;;;;;;;;6315594;28;20040;-82
2021/12/12 06:07:13;;;;;;;11.80;4.25;;;;;;;;;;6313757;28;20035;-88
2021/12/12 06:10:16;;;;;;;13.68;4.53;;;;;;;;;;6278713;28;20123;-82
2021/12/12 06:13:19;;;;;;;10.00;4.07;;;;;;;;;;6294282;28;20055;-82
2021/12/12 06:16:22;;;;;;;;;;;;;;;;;;6295242;28;20109;-83
2021/12/12 06:19:25;;;;;;;8.10;3.57;;;;;;;;;;6290088;28;19924;-87
2021/12/12 06:22:28;;;;;;;11.10;4.23;;;;;;;;;;6274248;28;20043;-86
2021/12/12 06:25:29;;;;;;;11.80;3.88;;;;;;;;;;6304580;28;20059;-86
2021/12/12 06:28:35;;;;;;;9.68;4.20;;;;;;;;;;6295402;28;20515;-85
2021/12/12 06:31:39;;;;;;;10.70;4.28;;;;;;;;;;6302507;28;20488;-82
2021/12/12 06:34:42;;;;;;;13.05;5.50;;;;;;;;;;6270784;28;20047;-84
2021/12/12 06:37:44;;;;;;;10.90;4.10;;;;;;;;;;6278370;28;20108;-82
2021/12/12 06:40:46;;;;;;;8.10;3.70;;;;;;;;;;6277079;28;20481;-85
2021/12/12 06:43:50;;;;;;;9.52;4.40;;;;;;;;;;6313538;28;20048;-84
2021/12/12 06:46:53;;;;;;;;;;;;;;;;;;6277225;28;20151;-83
2021/12/12 06:49:55;;;;;;;11.85;3.95;;;;;;;;;;6270322;28;19920;-80
2021/12/12 06:52:58;;;;;;;10.77;4.00;;;;;;;;;;6285938;28;20497;-83
2021/12/12 06:56:02;;;;;;;13.30;3.63;;;;;;;;;;6288289;28;20048;-82
2021/12/12 06:59:04;;;;;;;9.48;4.00;;;;;;;;;;6287911;28;20056;-82
2021/12/12 07:02:08;;;;;;;11.70;3.67;;;;;;;;;;6276847;28;20055;-82
2021/12/12 07:05:17;;;;;;;7.05;3.45;;;;;;;;;;6268798;28;20036;-82
2021/12/12 07:08:22;;;;;;;8.63;4.07;;;;;;;;;;6310839;28;20689;-81
2021/12/12 07:11:25;;;;;;;9.88;4.55;;;;;;;;;;6287126;28;20048;-83
2021/12/12 07:14:27;;;;;;;9.73;4.88;;;;;;;;;;6281201;28;20752;-82
2021/12/12 07:17:29;;;;;;;10.77;4.68;;;;;;;;;;6288243;28;20040;-79
2021/12/12 07:20:31;;;;;;;12.30;6.03;;;;;;;;;;6281699;28;20124;-80
2021/12/12 07:23:34;;;;;;;54.78;26.10;;;;;;;;;;6307642;28;20404;-82
2021/12/12 07:26:37;;;;;;;21.42;7.45;;;;;;;;;;6308438;28;20462;-81
2021/12/12 07:29:38;;;;;;;15.73;6.43;;;;;;;;;;6299844;28;20040;-80
2021/12/12 07:32:41;;;;;;;17.45;7.38;;;;;;;;;;6306763;28;20507;-81
2021/12/12 07:35:44;;;;;;;17.30;6.43;;;;;;;;;;6311292;28;20100;-79
2021/12/12 07:38:51;;;;;;;14.77;5.90;;;;;;;;;;6302649;28;20040;-82
2021/12/12 07:41:54;;;;;;;18.75;8.10;;;;;;;;;;6302815;28;20439;-79
2021/12/12 07:44:57;;;;;;;16.20;6.88;;;;;;;;;;6284860;28;20067;-81
2021/12/12 07:47:59;;;;;;;14.40;6.88;;;;;;;;;;6290231;28;20041;-81
2021/12/12 07:51:02;;;;;;;15.63;7.22;;;;;;;;;;6293270;28;20051;-81
2021/12/12 07:54:07;;;;;;;15.77;5.65;;;;;;;;;;6295758;28;20048;-80
2021/12/12 07:57:09;;;;;;;19.15;6.05;;;;;;;;;;6291349;28;20040;-81
2021/12/12 08:00:18;;;;;;;11.95;5.85;;;;;;;;;;6299520;28;20110;-81
2021/12/12 08:03:28;;;;;;;12.70;6.15;;;;;;;;;;6283164;28;20044;-80
2021/12/12 08:06:30;;;;;;;18.08;7.22;;;;;;;;;;6317110;28;20485;-82
2021/12/12 08:09:32;;;;;;;12.60;5.53;;;;;;;;;;6275309;28;20047;-81
2021/12/12 08:12:34;;;;;;;16.08;5.97;;;;;;;;;;6276563;28;20405;-83
2021/12/12 08:15:35;;;;;;;18.70;7.00;;;;;;;;;;6297799;28;20036;-83
2021/12/12 08:18:41;;;;;;;11.20;5.90;;;;;;;;;;6299422;28;20044;-80
2021/12/12 08:21:45;;;;;;;11.60;5.50;;;;;;;;;;6307977;28;20044;-83
2021/12/12 08:24:47;;;;;;;17.10;7.10;;;;;;;;;;6308595;28;20046;-82
2021/12/12 08:27:50;;;;;;;16.70;6.00;;;;;;;;;;6291756;28;20051;-82
2021/12/12 08:30:52;;;;;;;12.43;5.13;;;;;;;;;;6294255;28;20044;-82
2021/12/12 08:33:53;;;;;;;12.07;5.57;;;;;;;;;;6291461;28;20036;-82
2021/12/12 08:36:55;;;;;;;15.13;6.90;;;;;;;;;;6313071;28;20044;-81
2021/12/12 08:40:01;;;;;;;18.65;9.43;;;;;;;;;;6296044;28;20047;-81
2021/12/12 08:43:09;;;;;;;29.25;11.98;;;;;;;;;;6293184;28;20564;-81
2021/12/12 08:46:13;;;;;;;21.20;9.25;;;;;;;;;;6302583;28;20048;-81
2021/12/12 08:49:17;;;;;;;24.75;10.95;;;;;;;;;;6292739;28;20047;-81
2021/12/12 08:52:24;;;;;;;19.98;9.55;;;;;;;;;;6283507;28;20055;-80
2021/12/12 08:55:34;;;;;;;15.73;6.38;;;;;;;;;;6316949;28;20043;-80
2021/12/12 08:58:35;;;;;;;17.08;6.13;;;;;;;;;;6291605;28;20051;-79
2021/12/12 09:01:39;;;;;;;9.68;4.78;;;;;;;;;;6283182;28;20058;-79
2021/12/12 09:04:46;;;;;;;12.07;6.13;;;;;;;;;;6309409;28;20186;-79
2021/12/12 09:07:54;;;;;;;8.95;4.05;;;;;;;;;;6312045;28;20758;-79
2021/12/12 09:11:05;;;;;;;14.93;6.82;;;;;;;;;;6290018;28;20042;-80
2021/12/12 09:14:10;;;;;;;16.90;6.88;;;;;;;;;;6295317;28;20094;-81
2021/12/12 09:17:21;;;;;;;11.23;6.30;;;;;;;;;;6259219;28;20036;-80
2021/12/12 09:20:49;;;;;;;16.48;6.80;;;;;;;;;;6309621;28;20515;-80
2021/12/12 09:24:03;;;;;;;14.38;7.25;;;;;;;;;;6286688;28;20128;-80
2021/12/12 09:27:08;;;;;;;17.55;6.72;;;;;;;;;;6275569;28;20128;-82
2021/12/12 09:30:11;;;;;;;16.17;7.47;;;;;;;;;;6295804;28;20043;-81
2021/12/12 09:33:20;;;;;;;15.80;6.78;;;;;;;;;;6293879;28;20047;-83
2021/12/12 09:36:40;;;;;;;31.58;9.80;;;;;;;;;;6277066;28;20412;-83
2021/12/12 09:39:47;;;;;;;38.60;13.32;;;;;;;;;;6275549;28;20119;-83
2021/12/12 09:42:59;;;;;;;17.05;7.45;;;;;;;;;;6273911;28;20627;-80
2021/12/12 09:46:31;;;;;;;11.85;5.57;;;;;;;;;;6291083;28;20051;-81
2021/12/12 09:53:34;;;;;;;17.08;8.40;;;;;;;;;;6269253;28;20115;-80
2021/12/12 09:56:56;;;;;;;34.42;17.48;;;;;;;;;;6281373;28;20047;-80
2021/12/12 10:00:12;;;;;;;20.45;10.05;;;;;;;;;;6292698;28;20129;-79
2021/12/12 10:03:48;;;;;;;12.95;7.05;;;;;;;;;;6311776;28;20271;-79
2021/12/12 10:07:09;;;;;;;36.25;14.45;;;;;;;;;;6311244;28;20043;-80
2021/12/12 10:10:23;;;;;;;10.73;6.05;;;;;;;;;;6275637;28;20131;-80
2021/12/12 10:13:45;;;;;;;9.98;4.82;;;;;;;;;;6311364;28;20083;-78
2021/12/12 10:17:00;;;;;;;8.65;5.15;;;;;;;;;;6300929;28;20044;-80
2021/12/12 10:20:20;;;;;;;7.40;4.38;;;;;;;;;;6308950;28;20181;-79
2021/12/12 10:23:46;;;;;;;5.50;3.70;;;;;;;;;;6290008;28;20052;-79
2021/12/12 10:27:15;;;;;;;9.52;6.10;;;;;;;;;;6309575;28;20123;-80
2021/12/12 10:30:43;;;;;;;13.85;7.80;;;;;;;;;;6302275;28;20052;-81
2021/12/12 10:33:57;;;;;;;18.17;9.57;;;;;;;;;;6224195;28;20170;-81
2021/12/12 10:37:09;;;;;;;13.13;5.72;;;;;;;;;;6268527;28;20040;-83
2021/12/12 10:40:35;;;;;;;13.60;6.25;;;;;;;;;;6298522;28;20046;-82
2021/12/12 10:43:41;;;;;;;14.13;6.72;;;;;;;;;;6296847;28;20126;-81
2021/12/12 10:47:39;;;;;;;9.43;4.80;;;;;;;;;;6286876;28;20131;-82
2021/12/12 10:51:16;;;;;;;5.50;3.63;;;;;;;;;;6167204;28;20066;-81
2021/12/12 10:54:25;;;;;;;9.30;4.10;;;;;;;;;;6263319;28;20052;-80
2021/12/12 10:57:32;;;;;;;7.95;4.90;;;;;;;;;;6293233;28;20517;-83
2021/12/12 11:00:40;;;;;;;5.60;4.00;;;;;;;;;;6300259;28;20096;-80
2021/12/12 11:03:50;;;;;;;6.53;4.47;;;;;;;;;;6267850;28;20052;-81
2021/12/12 11:07:03;;;;;;;5.65;3.67;;;;;;;;;;6275594;28;20042;-81
2021/12/12 11:10:19;;;;;;;8.15;4.00;;;;;;;;;;6296035;28;20586;-80
2021/12/12 11:13:35;;;;;;;7.50;4.03;;;;;;;;;;6310429;28;20048;-81
2021/12/12 11:16:50;;;;;;;7.20;4.38;;;;;;;;;;6295359;28;20719;-82
2021/12/12 11:19:58;;;;;;;7.90;4.10;;;;;;;;;;6280026;28;20048;-80
2021/12/12 11:23:06;;;;;;;6.45;4.05;;;;;;;;;;6298675;28;20067;-81
2021/12/12 11:26:27;;;;;;;4.53;3.15;;;;;;;;;;6300386;28;20051;-79
2021/12/12 11:29:42;;;;;;;11.48;7.95;;;;;;;;;;6316463;28;20127;-82
2021/12/12 11:32:45;;;;;;;8.40;5.60;;;;;;;;;;6309290;28;20036;-79
2021/12/12 11:35:50;;;;;;;5.75;3.88;;;;;;;;;;6298074;28;20528;-78
2021/12/12 11:39:06;;;;;;;4.57;3.13;;;;;;;;;;6316916;28;20122;-80
2021/12/12 11:42:27;;;;;;;5.57;3.63;;;;;;;;;;6317477;28;20615;-85
2021/12/12 11:45:42;;;;;;;3.97;2.83;;;;;;;;;;6275218;28;20052;-81
2021/12/12 11:49:11;;;;;;;8.23;3.65;;;;;;;;;;6291411;28;20041;-79
2021/12/12 11:52:19;;;;;;;5.65;2.50;;;;;;;;;;6277969;28;20385;-80
2021/12/12 11:55:49;;;;;;;5.07;3.65;;;;;;;;;;6314346;28;20044;-81
2021/12/12 11:59:23;;;;;;;5.50;2.40;;;;;;;;;;6311556;28;20227;-80
2021/12/12 12:02:33;;;;;;;6.68;3.40;;;;;;;;;;6298581;28;20044;-81
2021/12/12 12:05:43;;;;;;;4.05;2.63;;;;;;;;;;6270892;28;20063;-82
2021/12/12 12:09:01;;;;;;;4.25;3.00;;;;;;;;;;6291014;28;20036;-82
2021/12/12 12:12:17;;;;;;;6.72;3.65;;;;;;;;;;6314737;28;20055;-81
2021/12/12 12:15:40;;;;;;;6.75;3.53;;;;;;;;;;6313714;28;20044;-80
2021/12/12 12:19:33;;;;;;;6.93;3.80;;;;;;;;;;6268818;28;20105;-81
2021/12/12 12:22:54;;;;;;;6.50;3.78;;;;;;;;;;6250774;28;20058;-81
2021/12/12 12:29:26;;;;;;;4.75;3.17;;;;;;;;;;6300904;28;20052;-81
2021/12/12 12:32:46;;;;;;;7.15;3.20;;;;;;;;;;6271342;28;20045;-80
2021/12/12 12:36:25;;;;;;;4.53;2.50;;;;;;;;;;6287869;28;20044;-82
2021/12/12 12:40:15;;;;;;;3.13;2.15;;;;;;;;;;6296766;28;20040;-81
2021/12/12 12:43:41;;;;;;;4.07;2.53;;;;;;;;;;6271360;28;20669;-79
2021/12/12 12:47:20;;;;;;;4.30;2.20;;;;;;;;;;6249576;28;20079;-79
2021/12/12 12:50:31;;;;;;;4.10;2.40;;;;;;;;;;6293117;28;20710;-80
2021/12/12 12:53:57;;;;;;;6.32;3.03;;;;;;;;;;6290830;28;20047;-79
2021/12/12 12:57:27;;;;;;;6.30;3.35;;;;;;;;;;6294182;28;20723;-81
2021/12/12 13:00:32;;;;;;;4.85;3.15;;;;;;;;;;6284599;28;20055;-80
2021/12/12 13:03:47;;;;;;;4.97;3.88;;;;;;;;;;6287135;28;20402;-79
2021/12/12 13:07:14;;;;;;;6.45;3.45;;;;;;;;;;6278402;28;20134;-81
2021/12/12 13:10:21;;;;;;;5.88;3.88;;;;;;;;;;6304038;28;20035;-82
2021/12/12 13:13:29;;;;;;;4.28;2.75;;;;;;;;;;6270104;28;20056;-80
2021/12/12 13:16:49;;;;;;;8.85;5.15;;;;;;;;;;6291560;28;20152;-80
2021/12/12 13:20:18;;;;;;;9.43;5.45;;;;;;;;;;6269557;28;20066;-80
2021/12/12 13:23:42;;;;;;;7.97;4.00;;;;;;;;;;6288451;28;20051;-81
2021/12/12 13:27:18;;;;;;;5.65;3.13;;;;;;;;;;6299268;28;20412;-80
2021/12/12 13:30:29;;;;;;;5.15;3.60;;;;;;;;;;6291669;28;20188;-81
2021/12/12 13:33:56;;;;;;;4.93;3.30;;;;;;;;;;6290937;28;20055;-79
2021/12/12 13:37:04;;;;;;;6.13;4.30;;;;;;;;;;6309215;28;20045;-80
2021/12/12 13:40:40;;;;;;;4.65;3.45;;;;;;;;;;6289106;28;20040;-79
2021/12/12 13:43:57;;;;;;;;;;;;;;;;;;6290659;28;20048;-81
2021/12/12 13:47:08;;;;;;;6.47;4.25;;;;;;;;;;6308165;28;20053;-81
2021/12/12 13:50:35;;;;;;;7.03;4.57;;;;;;;;;;6295907;28;20056;-81
2021/12/12 13:53:52;;;;;;;4.35;3.60;;;;;;;;;;6283436;28;20052;-82
2021/12/12 13:57:06;;;;;;;6.25;3.10;;;;;;;;;;6294309;28;20059;-80
2021/12/12 14:00:13;;;;;;;6.35;3.35;;;;;;;;;;6303653;28;20040;-81
2021/12/12 14:03:22;;;;;;;7.53;5.30;;;;;;;;;;6288631;28;20036;-81
2021/12/12 14:06:26;;;;;;;5.25;3.50;;;;;;;;;;6306141;28;20606;-80
2021/12/12 14:09:29;;;;;;;4.22;3.28;;;;;;;;;;6301290;28;20118;-81
2021/12/12 14:12:33;;;;;;;4.43;2.83;;;;;;;;;;6305757;28;20055;-80
2021/12/12 14:15:38;;;;;;;3.63;2.00;;;;;;;;;;6289503;28;20451;-83
2021/12/12 14:18:44;;;;;;;2.58;2.13;;;;;;;;;;6305264;28;20040;-82
2021/12/12 14:21:47;;;;;;;3.63;2.28;;;;;;;;;;6311971;28;20154;-81
2021/12/12 14:24:51;;;;;;;5.03;2.67;;;;;;;;;;6308278;28;20079;-80
2021/12/12 14:27:56;;;;;;;4.82;2.60;;;;;;;;;;6292312;28;20039;-82
2021/12/12 14:30:59;;;;;;;6.15;3.83;;;;;;;;;;6301908;28;20058;-83
2021/12/12 14:34:11;;;;;;;10.10;4.63;;;;;;;;;;6306536;28;20047;-81
2021/12/12 14:37:19;;;;;;;6.30;3.75;;;;;;;;;;6305920;28;20044;-82
2021/12/12 14:40:26;;;;;;;4.90;3.28;;;;;;;;;;6306660;28;20130;-81
2021/12/12 14:43:35;;;;;;;4.45;2.97;;;;;;;;;;6306621;28;20044;-81
2021/12/12 14:46:42;;;;;;;4.20;2.97;;;;;;;;;;6310570;28;20040;-81
2021/12/12 14:49:52;;;;;;;4.78;3.70;;;;;;;;;;6316221;28;20036;-81
2021/12/12 14:52:59;;;;;;;3.85;2.78;;;;;;;;;;6299976;28;20054;-81
2021/12/12 14:56:08;;;;;;;3.72;2.67;;;;;;;;;;6301798;28;20044;-80
2021/12/12 14:59:19;;;;;;;3.20;2.47;;;;;;;;;;6287359;28;20058;-83
2021/12/12 15:02:27;;;;;;;4.93;3.30;;;;;;;;;;6302594;28;20036;-80
2021/12/12 15:05:42;;;;;;;4.47;3.30;;;;;;;;;;6303095;28;20044;-82
2021/12/12 15:09:07;;;;;;;4.32;3.30;;;;;;;;;;6272026;28;20071;-83
2021/12/12 15:12:15;;;;;;;6.65;4.15;;;;;;;;;;6294849;28;20041;-82
2021/12/12 15:15:20;;;;;;;9.82;5.20;;;;;;;;;;6282758;28;20123;-81
2021/12/12 15:18:31;;;;;;;8.40;4.28;;;;;;;;;;6295654;28;20059;-81
2021/12/12 15:21:36;;;;;;;7.30;5.00;;;;;;;;;;6277441;28;20043;-83
2021/12/12 15:24:56;;;;;;;12.25;7.72;;;;;;;;;;6304051;28;20044;-81
2021/12/12 15:28:04;;;;;;;8.07;5.75;;;;;;;;;;6295048;28;20044;-82
2021/12/12 15:31:11;;;;;;;5.78;4.28;;;;;;;;;;6287890;28;20048;-83
2021/12/12 15:34:17;;;;;;;15.20;9.07;;;;;;;;;;6295570;28;20075;-82
2021/12/12 15:37:21;;;;;;;12.40;7.72;;;;;;;;;;6281315;28;20044;-79
2021/12/12 15:40:26;;;;;;;17.08;11.18;;;;;;;;;;6291944;28;20044;-80
2021/12/12 15:43:35;;;;;;;7.45;5.90;;;;;;;;;;6318785;28;20127;-81
2021/12/12 15:46:40;;;;;;;7.68;5.50;;;;;;;;;;6283498;28;20118;-81
2021/12/12 15:49:48;;;;;;;6.57;4.72;;;;;;;;;;6303477;28;20049;-78
2021/12/12 15:52:58;;;;;;;7.43;4.68;;;;;;;;;;6277237;28;20047;-79
2021/12/12 15:56:07;;;;;;;9.85;5.63;;;;;;;;;;6299907;28;20132;-82
2021/12/12 15:59:17;;;;;;;7.53;5.15;;;;;;;;;;6294068;28;20118;-81
2021/12/12 16:02:25;;;;;;;7.85;4.88;;;;;;;;;;6311171;28;20467;-80
2021/12/12 16:05:36;;;;;;;13.63;7.45;;;;;;;;;;6315135;28;20393;-82
2021/12/12 16:08:42;;;;;;;7.82;5.47;;;;;;;;;;6299329;28;20044;-80
2021/12/12 16:11:45;;;;;;;9.15;5.40;;;;;;;;;;6280687;28;20047;-80
2021/12/12 16:14:53;;;;;;;24.07;13.13;;;;;;;;;;6306068;28;20193;-82
2021/12/12 16:17:56;;;;;;;15.60;8.95;;;;;;;;;;6311611;28;20058;-79
2021/12/12 16:21:00;;;;;;;6.40;4.45;;;;;;;;;;6309384;28;20044;-79
2021/12/12 16:24:05;;;;;;;16.55;8.98;;;;;;;;;;6288242;28;20048;-78
2021/12/12 16:27:11;;;;;;;8.65;5.22;;;;;;;;;;6285738;28;20036;-81
2021/12/12 16:30:26;;;;;;;10.07;6.85;;;;;;;;;;6295356;28;20141;-81
2021/12/12 16:33:39;;;;;;;6.57;4.82;;;;;;;;;;6268198;28;20051;-81
2021/12/12 16:36:48;;;;;;;9.77;6.25;;;;;;;;;;6287961;28;20048;-82
2021/12/12 16:39:53;;;;;;;11.50;7.50;;;;;;;;;;6267574;28;20043;-84
2021/12/12 16:42:58;;;;;;;11.10;6.80;;;;;;;;;;6290302;28;20046;-81
2021/12/12 16:46:05;;;;;;;9.00;6.00;;;;;;;;;;6286825;28;20052;-81
2021/12/12 16:49:08;;;;;;;6.90;4.68;;;;;;;;;;6297610;28;20051;-80
2021/12/12 16:52:13;;;;;;;;;;;;;;;;;;6307599;28;20073;-79
2021/12/12 16:55:22;;;;;;;12.13;7.30;;;;;;;;;;6291613;28;19920;-81
2021/12/12 16:58:33;;;;;;;33.50;14.18;;;;;;;;;;6278746;28;20524;-80
2021/12/12 17:01:39;;;;;;;19.45;8.88;;;;;;;;;;6278175;28;20081;-82
2021/12/12 17:04:45;;;;;;;20.27;10.75;;;;;;;;;;6280988;28;20047;-81
2021/12/12 17:07:51;;;;;;;16.85;7.70;;;;;;;;;;6315359;28;20035;-84
2021/12/12 17:11:01;;;;;;;32.15;10.52;;;;;;;;;;6312229;28;20123;-82
2021/12/12 17:14:16;;;;;;;25.27;9.48;;;;;;;;;;6310326;28;20116;-79
2021/12/12 17:17:43;;;;;;;32.10;10.90;;;;;;;;;;6305698;28;20075;-79
2021/12/12 17:20:49;;;;;;;37.15;13.90;;;;;;;;;;6304167;28;20039;-80
2021/12/12 17:24:09;;;;;;;30.52;12.13;;;;;;;;;;6299983;28;20045;-83
2021/12/12 17:27:15;;;;;;;14.13;7.05;;;;;;;;;;6314200;28;20407;-81
2021/12/12 17:30:21;;;;;;;10.15;6.47;;;;;;;;;;6305936;28;20054;-84
2021/12/12 17:33:27;;;;;;;11.38;6.97;;;;;;;;;;6304999;28;20058;-81
2021/12/12 17:36:37;;;;;;;10.57;6.05;;;;;;;;;;6314717;28;20173;-82
2021/12/12 17:39:50;;;;;;;16.02;7.47;;;;;;;;;;6299554;28;20048;-81
2021/12/12 17:43:12;;;;;;;20.42;9.48;;;;;;;;;;6277235;28;20047;-82
2021/12/12 17:46:47;;;;;;;17.33;8.80;;;;;;;;;;6302587;28;20047;-81
2021/12/12 17:50:16;;;;;;;13.40;7.28;;;;;;;;;;6314917;28;20047;-82
2021/12/12 17:53:23;;;;;;;16.67;8.05;;;;;;;;;;6278344;28;20059;-83
2021/12/12 17:57:20;;;;;;;12.20;7.28;;;;;;;;;;6311683;28;20127;-81
2021/12/12 18:00:25;;;;;;;10.68;6.68;;;;;;;;;;6269226;28;20059;-82
2021/12/12 18:03:32;;;;;;;7.63;5.80;;;;;;;;;;6290822;28;20098;-80
2021/12/12 18:06:36;;;;;;;12.85;6.90;;;;;;;;;;6291733;28;20139;-80
2021/12/12 18:09:40;;;;;;;14.07;7.63;;;;;;;;;;6284031;28;20055;-80
2021/12/12 18:12:43;;;;;;;26.73;13.15;;;;;;;;;;6280544;28;20040;-80
2021/12/12 18:15:54;;;;;;;23.30;11.00;;;;;;;;;;6286792;28;20472;-81
2021/12/12 18:19:12;;;;;;;14.60;8.45;;;;;;;;;;6283405;28;20101;-82
2021/12/12 18:22:25;;;;;;;10.07;5.90;;;;;;;;;;6283899;28;20166;-82
2021/12/12 18:25:48;;;;;;;12.70;7.90;;;;;;;;;;6284771;28;20068;-78
2021/12/12 18:28:57;;;;;;;12.43;7.47;;;;;;;;;;6279320;28;20202;-81
2021/12/12 18:32:01;;;;;;;10.07;5.82;;;;;;;;;;6308882;28;20043;-80
2021/12/12 18:35:06;;;;;;;10.35;5.05;;;;;;;;;;6294522;28;20050;-79
2021/12/12 18:38:16;;;;;;;8.25;5.20;;;;;;;;;;6292202;28;20040;-80
2021/12/12 18:41:24;;;;;;;9.32;5.40;;;;;;;;;;6307373;28;20044;-81
2021/12/12 18:44:31;;;;;;;12.90;7.55;;;;;;;;;;6303604;28;20052;-82
2021/12/12 18:47:37;;;;;;;12.93;8.00;;;;;;;;;;6304510;28;20508;-80
2021/12/12 18:50:42;;;;;;;9.95;5.93;;;;;;;;;;6305818;28;20032;-82
2021/12/12 18:53:49;;;;;;;10.48;6.32;;;;;;;;;;6307453;28;20050;-79
2021/12/12 18:56:55;;;;;;;9.02;5.65;;;;;;;;;;6303952;28;20047;-79
2021/12/12 19:00:07;;;;;;;10.25;5.43;;;;;;;;;;6304167;28;20079;-80
2021/12/12 19:03:17;;;;;;;8.02;5.30;;;;;;;;;;6305853;28;20177;-79
2021/12/12 19:06:28;;;;;;;6.82;4.43;;;;;;;;;;6283446;28;20086;-79
2021/12/12 19:09:35;;;;;;;6.93;3.95;;;;;;;;;;6302128;28;20047;-82
2021/12/12 19:12:43;;;;;;;7.80;4.40;;;;;;;;;;6310410;28;20036;-80
2021/12/12 19:15:46;;;;;;;12.68;6.70;;;;;;;;;;6296853;28;20118;-80
2021/12/12 19:18:51;;;;;;;51.88;23.65;;;;;;;;;;6267874;28;20047;-80